Search METAR Data

METAR Data for ENSB:

ENSB 241550Z 25004KT CAVOK 00/M05 Q1023 RMK WIND 1400FT 12007KT